createdAt,value
2022-08-20T06:33:39.456Z,85.37
2022-08-20T06:36:49.097Z,85.01
2022-08-20T06:40:02.560Z,85.75
2022-08-20T06:43:12.623Z,85.09
2022-08-20T06:46:23.346Z,84.65
2022-08-20T06:49:35.709Z,83.81
2022-08-20T06:52:52.090Z,84.13
2022-08-20T06:56:02.784Z,83.59
2022-08-20T06:59:12.264Z,82.88
2022-08-20T07:02:29.273Z,82.32
2022-08-20T07:05:43.987Z,81.36
2022-08-20T07:08:54.262Z,80.53
2022-08-20T07:12:04.075Z,79.34
2022-08-20T07:15:15.670Z,80.12
2022-08-20T07:18:28.050Z,78.36
2022-08-20T07:21:40.401Z,78.04
2022-08-20T07:24:49.918Z,77.07
2022-08-20T07:28:02.804Z,75.28
2022-08-20T07:31:23.632Z,75.44
2022-08-20T07:34:33.146Z,76.44
2022-08-20T07:37:48.282Z,76.23
2022-08-20T07:41:00.248Z,76.73
2022-08-20T07:44:09.710Z,76.00
2022-08-20T07:47:20.099Z,74.53
2022-08-20T07:50:29.654Z,75.13
2022-08-20T07:53:41.655Z,75.11
2022-08-20T07:56:51.175Z,75.90
2022-08-20T08:00:00.758Z,74.03
2022-08-20T08:03:10.829Z,73.82
2022-08-20T08:06:29.162Z,73.12
2022-08-20T08:09:40.983Z,71.35
2022-08-20T08:12:55.446Z,70.33
2022-08-20T08:16:06.865Z,70.68
2022-08-20T08:19:18.570Z,69.23
2022-08-20T08:22:32.439Z,68.76
2022-08-20T08:25:43.737Z,64.33
2022-08-20T08:28:53.229Z,62.81
2022-08-20T08:32:03.161Z,61.47
2022-08-20T08:35:12.845Z,60.30
2022-08-20T08:38:23.791Z,60.33
2022-08-20T08:41:36.731Z,59.42
2022-08-20T08:44:46.887Z,59.66
2022-08-20T08:47:57.798Z,60.01
2022-08-20T08:51:12.154Z,60.57
2022-08-20T08:54:25.106Z,60.80
2022-08-20T08:57:36.098Z,61.87
2022-08-20T09:00:55.923Z,60.58
2022-08-20T09:04:07.970Z,60.03
2022-08-20T09:07:18.105Z,60.13
2022-08-20T09:10:27.589Z,59.39
2022-08-20T09:13:38.928Z,57.68
2022-08-20T09:16:52.818Z,55.10
2022-08-20T09:20:03.007Z,55.73
2022-08-20T09:23:12.750Z,54.98
2022-08-20T09:26:22.563Z,54.30
2022-08-20T09:29:41.119Z,53.51
2022-08-20T09:32:51.088Z,52.21
2022-08-20T09:36:00.760Z,50.34
2022-08-20T09:39:12.376Z,50.96
2022-08-20T09:42:23.864Z,49.58
2022-08-20T09:45:34.767Z,49.60
2022-08-20T09:48:44.424Z,49.14
2022-08-20T09:51:54.016Z,48.82
2022-08-20T09:55:10.738Z,48.70
2022-08-20T09:58:28.288Z,47.71
2022-08-20T10:01:39.132Z,47.68
2022-08-20T10:04:48.686Z,48.07
2022-08-20T10:07:58.603Z,47.48
2022-08-20T10:11:08.649Z,48.37
2022-08-20T10:14:18.330Z,48.26
2022-08-20T10:17:29.331Z,48.16
2022-08-20T10:20:38.953Z,48.40
2022-08-20T10:23:48.722Z,49.63
2022-08-20T10:27:00.130Z,50.66
2022-08-20T10:30:11.199Z,51.96
2022-08-20T10:33:21.940Z,52.02
2022-08-20T10:36:31.631Z,50.55
2022-08-20T10:39:41.204Z,46.04
2022-08-20T10:42:51.577Z,46.18
2022-08-20T10:46:01.204Z,47.59
2022-08-20T10:49:12.131Z,44.82
2022-08-20T10:52:22.358Z,43.09
2022-08-20T10:55:31.831Z,42.66
2022-08-20T10:58:41.453Z,41.36
2022-08-20T11:01:51.008Z,41.33
2022-08-20T11:05:01.835Z,40.80
2022-08-20T11:08:11.302Z,41.25
2022-08-20T11:11:20.963Z,40.84
2022-08-20T11:14:31.325Z,41.76
2022-08-20T11:17:43.614Z,40.00
2022-08-20T11:20:54.845Z,40.81
2022-08-20T11:24:04.869Z,37.73
2022-08-20T11:27:20.599Z,38.82
2022-08-20T11:30:32.994Z,37.65
2022-08-20T11:33:42.607Z,37.09
2022-08-20T11:36:54.226Z,35.75
2022-08-20T11:40:05.098Z,36.11
2022-08-20T11:43:16.692Z,34.76
2022-08-20T11:46:28.675Z,35.12
2022-08-20T11:49:38.506Z,33.47
2022-08-20T11:52:49.445Z,33.88
2022-08-20T11:55:59.192Z,35.10
2022-08-20T11:59:10.042Z,35.07
2022-08-20T12:02:21.749Z,32.42
2022-08-20T12:05:31.679Z,32.38
2022-08-20T12:08:42.505Z,31.75
2022-08-20T12:11:51.967Z,31.34
2022-08-20T12:15:01.500Z,30.67
2022-08-20T12:18:11.524Z,30.95
2022-08-20T12:21:20.979Z,30.80
2022-08-20T12:24:31.833Z,30.82
2022-08-20T12:27:42.159Z,30.41
2022-08-20T12:30:51.635Z,29.03
2022-08-20T12:34:01.140Z,29.99
2022-08-20T12:37:15.915Z,29.10
2022-08-20T12:40:31.871Z,28.82
2022-08-20T12:43:44.772Z,29.53
2022-08-20T12:47:06.637Z,29.71
2022-08-20T12:50:19.362Z,29.03
2022-08-20T12:53:29.083Z,29.48
2022-08-20T12:56:41.689Z,28.42
2022-08-20T12:59:51.416Z,29.33
2022-08-20T13:03:03.481Z,29.12
2022-08-20T13:06:13.027Z,29.00
2022-08-20T13:09:22.546Z,29.92
2022-08-20T13:12:33.522Z,30.74
2022-08-20T13:15:43.211Z,29.31
2022-08-20T13:18:52.681Z,29.39
2022-08-20T13:22:02.393Z,28.19
2022-08-20T13:25:14.107Z,28.00
2022-08-20T13:28:24.903Z,28.45
2022-08-20T13:31:34.424Z,27.75
2022-08-20T13:34:45.160Z,27.38
2022-08-20T13:37:54.662Z,27.61
2022-08-20T13:41:04.173Z,28.74
2022-08-20T13:44:14.984Z,27.16
2022-08-20T13:47:27.690Z,27.10
2022-08-20T13:50:38.191Z,26.71
2022-08-20T13:53:47.805Z,26.98
2022-08-20T13:57:05.274Z,27.64
2022-08-20T14:00:31.194Z,26.42
2022-08-20T14:03:42.657Z,25.35
2022-08-20T14:06:52.312Z,26.00
2022-08-20T14:10:05.872Z,24.67
2022-08-20T14:13:15.914Z,25.44
2022-08-20T14:16:27.633Z,25.06
2022-08-20T14:19:38.380Z,25.54
2022-08-20T14:22:47.880Z,26.14
2022-08-20T14:25:57.346Z,27.01
2022-08-20T14:29:06.824Z,28.96
2022-08-20T14:32:18.935Z,28.57
2022-08-20T14:35:28.406Z,28.48
2022-08-20T14:38:41.329Z,28.99
2022-08-20T14:41:50.829Z,30.03
2022-08-20T14:45:02.235Z,29.29
2022-08-20T14:48:14.747Z,30.99
2022-08-20T14:51:24.234Z,31.04
2022-08-20T14:54:34.908Z,31.44
2022-08-20T14:57:45.243Z,30.75
2022-08-20T15:00:54.825Z,31.66
2022-08-20T15:04:05.765Z,31.90
2022-08-20T15:07:22.319Z,31.87
2022-08-20T15:10:34.129Z,32.44
2022-08-20T15:13:43.642Z,31.61
2022-08-20T15:16:54.127Z,30.63
2022-08-20T15:20:09.543Z,31.07
2022-08-20T15:23:30.110Z,30.71
2022-08-20T15:26:39.912Z,29.98
2022-08-20T15:29:49.911Z,30.55
2022-08-20T15:33:02.773Z,29.66
2022-08-20T15:36:13.880Z,29.24
2022-08-20T15:39:23.638Z,29.34
2022-08-20T15:42:33.204Z,30.24
2022-08-20T15:45:42.754Z,29.25
2022-08-20T15:48:52.714Z,30.63
2022-08-20T15:52:05.124Z,30.94
2022-08-20T15:55:17.713Z,30.48
2022-08-20T15:58:35.812Z,30.90
2022-08-20T16:01:54.474Z,31.28
2022-08-20T16:05:15.433Z,31.41
2022-08-20T16:08:40.562Z,31.83
2022-08-20T16:11:55.696Z,31.53
2022-08-20T16:15:17.247Z,32.28
2022-08-20T16:18:30.874Z,31.55
2022-08-20T16:21:43.958Z,32.26
2022-08-20T16:24:55.442Z,32.03
2022-08-20T16:28:11.189Z,32.17
2022-08-20T16:31:26.908Z,32.32
2022-08-20T16:34:41.395Z,32.11
2022-08-20T16:37:58.785Z,32.72
2022-08-20T16:41:14.397Z,33.58
2022-08-20T16:44:32.571Z,33.18
2022-08-20T16:47:42.230Z,33.90
2022-08-20T16:50:58.692Z,34.35
2022-08-20T16:54:09.688Z,34.90
2022-08-20T16:57:20.524Z,33.75
2022-08-20T17:00:35.379Z,34.78
2022-08-20T17:03:51.105Z,34.47
2022-08-20T17:07:02.818Z,36.75
2022-08-20T17:10:22.206Z,38.65
2022-08-20T17:13:36.946Z,39.58
2022-08-20T17:16:50.044Z,39.88
2022-08-20T17:20:01.917Z,39.78
2022-08-20T17:23:18.148Z,40.44
2022-08-20T17:26:32.201Z,41.38
2022-08-20T17:29:52.924Z,42.23
2022-08-20T17:33:19.803Z,43.00
2022-08-20T17:36:30.981Z,44.30
2022-08-20T17:39:47.788Z,45.23
2022-08-20T17:43:01.411Z,45.43
2022-08-20T17:46:17.278Z,46.32
2022-08-20T17:49:38.902Z,47.06
2022-08-20T17:52:51.582Z,47.34
2022-08-20T17:56:04.510Z,48.00
2022-08-20T17:59:33.602Z,47.82
2022-08-20T18:02:49.164Z,48.56
2022-08-20T18:06:03.740Z,48.46
2022-08-20T18:09:17.971Z,49.31
2022-08-20T18:12:34.893Z,49.63
2022-08-20T18:15:50.598Z,50.21
2022-08-20T18:19:12.911Z,50.52
2022-08-20T18:22:26.118Z,50.44
2022-08-20T18:25:38.240Z,50.39
2022-08-20T18:28:53.512Z,51.01
2022-08-20T18:32:06.086Z,50.85
2022-08-20T18:35:21.472Z,51.27
2022-08-20T18:38:34.385Z,51.50
2022-08-20T18:41:57.584Z,52.52
2022-08-20T18:45:09.801Z,52.75
2022-08-20T18:48:22.354Z,52.63
2022-08-20T18:51:40.531Z,53.85
2022-08-20T18:54:52.755Z,54.50
2022-08-20T18:58:05.070Z,54.82
2022-08-20T19:01:15.967Z,54.88
2022-08-20T19:04:31.735Z,56.49
2022-08-20T19:07:48.954Z,56.24
2022-08-20T19:11:12.820Z,56.61
2022-08-20T19:14:40.892Z,57.17
2022-08-20T19:18:01.741Z,58.16
2022-08-20T19:21:15.655Z,58.69
2022-08-20T19:24:29.378Z,59.16
2022-08-20T19:27:40.506Z,59.87
2022-08-20T19:30:50.419Z,60.56
2022-08-20T19:34:03.922Z,60.67
2022-08-20T19:37:39.698Z,62.27
2022-08-20T19:41:10.958Z,62.01
2022-08-20T19:44:31.220Z,62.78
2022-08-20T19:47:58.466Z,63.25
2022-08-20T19:51:14.702Z,63.69
2022-08-20T19:54:26.506Z,64.02
2022-08-20T19:57:38.223Z,63.76
2022-08-20T20:00:50.954Z,64.59
2022-08-20T20:04:03.515Z,65.19
2022-08-20T20:07:20.097Z,65.66
2022-08-20T20:10:37.660Z,66.10
2022-08-20T20:13:48.404Z,66.79
2022-08-20T20:16:59.189Z,67.66
2022-08-20T20:20:22.305Z,68.02
2022-08-20T20:23:45.653Z,68.17
2022-08-20T20:27:01.443Z,68.58
2022-08-20T20:30:14.941Z,68.28
2022-08-20T20:33:30.703Z,68.27
2022-08-20T20:36:43.537Z,68.51
2022-08-20T20:40:01.606Z,70.27
2022-08-20T20:43:13.439Z,70.19
2022-08-20T20:46:27.487Z,70.82
2022-08-20T20:49:49.665Z,71.66
2022-08-20T20:52:59.779Z,72.44
2022-08-20T20:56:09.684Z,72.81
2022-08-20T20:59:19.863Z,72.65
2022-08-20T21:02:31.220Z,72.85
2022-08-20T21:05:41.401Z,73.29
2022-08-20T21:08:50.985Z,73.85
2022-08-20T21:12:00.478Z,73.96
2022-08-20T21:15:11.275Z,74.67
2022-08-20T21:18:25.794Z,75.53
2022-08-20T21:21:37.238Z,75.43
2022-08-20T21:24:48.522Z,76.30
2022-08-20T21:27:59.344Z,76.81
2022-08-20T21:31:08.875Z,77.86
2022-08-20T21:34:20.295Z,77.97
2022-08-20T21:37:29.798Z,78.00
2022-08-20T21:40:39.296Z,78.20
2022-08-20T21:43:51.009Z,78.71
2022-08-20T21:47:01.878Z,78.99
2022-08-20T21:50:15.255Z,78.96
2022-08-20T21:53:28.345Z,79.55
